sensor_id;sensor_type;location;lat;lon;timestamp;temperature;humidity
15455;DHT22;21057;51.024;7.540;2023-02-01T00:00:56;6.20;99.90
15455;DHT22;21057;51.024;7.540;2023-02-01T00:03:23;6.30;99.90
15455;DHT22;21057;51.024;7.540;2023-02-01T00:05:58;6.50;99.90
15455;DHT22;21057;51.024;7.540;2023-02-01T00:08:25;6.70;99.90
15455;DHT22;21057;51.024;7.540;2023-02-01T00:11:05;6.60;99.90
15455;DHT22;21057;51.024;7.540;2023-02-01T00:13:33;6.60;99.90
15455;DHT22;21057;51.024;7.540;2023-02-01T00:16:04;6.60;99.90
15455;DHT22;21057;51.024;7.540;2023-02-01T00:18:31;6.70;99.90
15455;DHT22;21057;51.024;7.540;2023-02-01T00:20:59;6.80;99.90
15455;DHT22;21057;51.024;7.540;2023-02-01T00:23:26;6.80;99.90
15455;DHT22;21057;51.024;7.540;2023-02-01T00:25:54;6.60;99.90
15455;DHT22;21057;51.024;7.540;2023-02-01T00:28:21;6.50;99.90
15455;DHT22;21057;51.024;7.540;2023-02-01T00:30:56;6.40;99.90
15455;DHT22;21057;51.024;7.540;2023-02-01T00:33:23;6.40;99.90
15455;DHT22;21057;51.024;7.540;2023-02-01T00:35:50;6.30;99.90
15455;DHT22;21057;51.024;7.540;2023-02-01T00:38:20;6.30;99.90
15455;DHT22;21057;51.024;7.540;2023-02-01T00:40:47;6.30;99.90
15455;DHT22;21057;51.024;7.540;2023-02-01T00:43:14;6.30;99.90
15455;DHT22;21057;51.024;7.540;2023-02-01T00:45:41;6.40;99.90
15455;DHT22;21057;51.024;7.540;2023-02-01T00:48:08;6.30;99.90
15455;DHT22;21057;51.024;7.540;2023-02-01T00:50:45;6.20;99.90
15455;DHT22;21057;51.024;7.540;2023-02-01T00:53:12;6.10;99.90
15455;DHT22;21057;51.024;7.540;2023-02-01T00:55:44;6.00;99.90
15455;DHT22;21057;51.024;7.540;2023-02-01T00:58:11;6.10;99.90
15455;DHT22;21057;51.024;7.540;2023-02-01T01:00:40;6.00;99.90
15455;DHT22;21057;51.024;7.540;2023-02-01T01:03:07;6.10;99.90
15455;DHT22;21057;51.024;7.540;2023-02-01T01:05:43;6.10;99.90
15455;DHT22;21057;51.024;7.540;2023-02-01T01:08:10;6.10;99.90
15455;DHT22;21057;51.024;7.540;2023-02-01T01:10:37;6.10;99.90
15455;DHT22;21057;51.024;7.540;2023-02-01T01:13:05;6.10;99.90
15455;DHT22;21057;51.024;7.540;2023-02-01T01:15:36;6.20;99.90
15455;DHT22;21057;51.024;7.540;2023-02-01T01:18:03;6.20;99.90
15455;DHT22;21057;51.024;7.540;2023-02-01T01:20:30;6.30;99.90
15455;DHT22;21057;51.024;7.540;2023-02-01T01:22:57;6.50;99.90
15455;DHT22;21057;51.024;7.540;2023-02-01T01:25:25;6.40;99.90
15455;DHT22;21057;51.024;7.540;2023-02-01T01:27:52;6.20;99.90
15455;DHT22;21057;51.024;7.540;2023-02-01T01:30:20;6.20;99.90
15455;DHT22;21057;51.024;7.540;2023-02-01T01:32:47;6.40;99.90
15455;DHT22;21057;51.024;7.540;2023-02-01T01:35:14;6.20;99.90
15455;DHT22;21057;51.024;7.540;2023-02-01T01:37:41;6.30;99.90
15455;DHT22;21057;51.024;7.540;2023-02-01T01:40:11;6.30;99.90
15455;DHT22;21057;51.024;7.540;2023-02-01T01:42:41;6.30;99.90
15455;DHT22;21057;51.024;7.540;2023-02-01T01:45:21;6.20;99.90
15455;DHT22;21057;51.024;7.540;2023-02-01T01:47:52;6.10;99.90
15455;DHT22;21057;51.024;7.540;2023-02-01T01:50:23;6.10;99.90
15455;DHT22;21057;51.024;7.540;2023-02-01T01:52:52;6.10;99.90
15455;DHT22;21057;51.024;7.540;2023-02-01T01:55:22;6.00;99.90
15455;DHT22;21057;51.024;7.540;2023-02-01T01:57:55;5.90;99.90
15455;DHT22;21057;51.024;7.540;2023-02-01T02:00:26;6.00;99.90
15455;DHT22;21057;51.024;7.540;2023-02-01T02:02:58;6.10;99.90
15455;DHT22;21057;51.024;7.540;2023-02-01T02:05:25;6.10;99.90
15455;DHT22;21057;51.024;7.540;2023-02-01T02:07:58;6.10;99.90
15455;DHT22;21057;51.024;7.540;2023-02-01T02:10:26;6.00;99.90
15455;DHT22;21057;51.024;7.540;2023-02-01T02:13:16;5.90;99.90
15455;DHT22;21057;51.024;7.540;2023-02-01T02:15:52;5.80;99.90
15455;DHT22;21057;51.024;7.540;2023-02-01T02:18:27;6.00;99.90
15455;DHT22;21057;51.024;7.540;2023-02-01T02:21:10;6.00;99.90
15455;DHT22;21057;51.024;7.540;2023-02-01T02:27:02;5.90;99.90
15455;DHT22;21057;51.024;7.540;2023-02-01T02:32:56;6.00;99.90
15455;DHT22;21057;51.024;7.540;2023-02-01T02:35:40;5.90;99.90
15455;DHT22;21057;51.024;7.540;2023-02-01T02:38:15;5.80;99.90
15455;DHT22;21057;51.024;7.540;2023-02-01T02:40:48;5.60;99.90
15455;DHT22;21057;51.024;7.540;2023-02-01T02:43:20;5.70;99.90
15455;DHT22;21057;51.024;7.540;2023-02-01T02:46:10;5.90;99.90
15455;DHT22;21057;51.024;7.540;2023-02-01T02:49:07;6.10;99.90
15455;DHT22;21057;51.024;7.540;2023-02-01T02:51:41;6.20;99.90
15455;DHT22;21057;51.024;7.540;2023-02-01T02:54:30;5.90;99.90
15455;DHT22;21057;51.024;7.540;2023-02-01T02:57:18;5.60;99.90
15455;DHT22;21057;51.024;7.540;2023-02-01T03:00:07;5.70;99.90
15455;DHT22;21057;51.024;7.540;2023-02-01T03:02:52;5.60;99.90
15455;DHT22;21057;51.024;7.540;2023-02-01T03:05:41;5.60;99.90
15455;DHT22;21057;51.024;7.540;2023-02-01T03:08:12;5.70;99.90
15455;DHT22;21057;51.024;7.540;2023-02-01T03:10:52;5.80;99.90
15455;DHT22;21057;51.024;7.540;2023-02-01T03:13:26;5.60;99.90
15455;DHT22;21057;51.024;7.540;2023-02-01T03:15:58;5.60;99.90
15455;DHT22;21057;51.024;7.540;2023-02-01T03:18:32;5.50;99.90
15455;DHT22;21057;51.024;7.540;2023-02-01T03:21:02;5.40;99.90
15455;DHT22;21057;51.024;7.540;2023-02-01T03:23:34;5.30;99.90
15455;DHT22;21057;51.024;7.540;2023-02-01T03:26:04;5.40;99.90
15455;DHT22;21057;51.024;7.540;2023-02-01T03:28:33;5.50;99.90
15455;DHT22;21057;51.024;7.540;2023-02-01T03:31:01;5.40;99.90
15455;DHT22;21057;51.024;7.540;2023-02-01T03:33:29;5.40;99.90
15455;DHT22;21057;51.024;7.540;2023-02-01T03:36:14;5.50;99.90
15455;DHT22;21057;51.024;7.540;2023-02-01T03:38:48;5.70;99.90
15455;DHT22;21057;51.024;7.540;2023-02-01T03:41:26;5.60;99.90
15455;DHT22;21057;51.024;7.540;2023-02-01T03:43:57;5.70;99.90
15455;DHT22;21057;51.024;7.540;2023-02-01T03:46:31;5.60;99.90
15455;DHT22;21057;51.024;7.540;2023-02-01T03:49:03;5.60;99.90
15455;DHT22;21057;51.024;7.540;2023-02-01T03:51:33;5.70;99.90
15455;DHT22;21057;51.024;7.540;2023-02-01T03:54:05;5.70;99.90
15455;DHT22;21057;51.024;7.540;2023-02-01T03:56:37;5.50;99.90
15455;DHT22;21057;51.024;7.540;2023-02-01T03:59:04;5.50;99.90
15455;DHT22;21057;51.024;7.540;2023-02-01T04:01:31;5.50;99.90
15455;DHT22;21057;51.024;7.540;2023-02-01T04:03:58;5.60;99.90
15455;DHT22;21057;51.024;7.540;2023-02-01T04:06:26;5.70;99.90
15455;DHT22;21057;51.024;7.540;2023-02-01T04:08:53;5.90;99.90
15455;DHT22;21057;51.024;7.540;2023-02-01T04:11:21;5.80;99.90
15455;DHT22;21057;51.024;7.540;2023-02-01T04:13:58;5.70;99.90
15455;DHT22;21057;51.024;7.540;2023-02-01T04:16:29;5.70;99.90
15455;DHT22;21057;51.024;7.540;2023-02-01T04:18:56;5.70;99.90
15455;DHT22;21057;51.024;7.540;2023-02-01T04:21:24;5.70;99.90
15455;DHT22;21057;51.024;7.540;2023-02-01T04:23:50;5.80;99.90
15455;DHT22;21057;51.024;7.540;2023-02-01T04:26:17;5.80;99.90
15455;DHT22;21057;51.024;7.540;2023-02-01T04:28:46;5.80;99.90
15455;DHT22;21057;51.024;7.540;2023-02-01T04:31:13;5.70;99.90
15455;DHT22;21057;51.024;7.540;2023-02-01T04:33:41;5.60;99.90
15455;DHT22;21057;51.024;7.540;2023-02-01T04:36:10;5.60;99.90
15455;DHT22;21057;51.024;7.540;2023-02-01T04:38:37;5.50;99.90
15455;DHT22;21057;51.024;7.540;2023-02-01T04:41:04;5.50;99.90
15455;DHT22;21057;51.024;7.540;2023-02-01T04:43:42;5.50;99.90
15455;DHT22;21057;51.024;7.540;2023-02-01T04:46:10;5.50;99.90
15455;DHT22;21057;51.024;7.540;2023-02-01T04:48:36;5.60;99.90
15455;DHT22;21057;51.024;7.540;2023-02-01T04:51:05;5.60;99.90
15455;DHT22;21057;51.024;7.540;2023-02-01T04:53:32;5.50;99.90
15455;DHT22;21057;51.024;7.540;2023-02-01T04:56:00;5.50;99.90
15455;DHT22;21057;51.024;7.540;2023-02-01T04:58:27;5.40;99.90
15455;DHT22;21057;51.024;7.540;2023-02-01T05:00:54;5.30;99.90
15455;DHT22;21057;51.024;7.540;2023-02-01T05:03:22;5.30;99.90
15455;DHT22;21057;51.024;7.540;2023-02-01T05:05:54;5.30;99.90
15455;DHT22;21057;51.024;7.540;2023-02-01T05:08:21;5.30;99.90
15455;DHT22;21057;51.024;7.540;2023-02-01T05:10:51;5.30;99.90
15455;DHT22;21057;51.024;7.540;2023-02-01T05:13:18;5.40;99.90
15455;DHT22;21057;51.024;7.540;2023-02-01T05:16:03;5.50;99.90
15455;DHT22;21057;51.024;7.540;2023-02-01T05:18:39;5.40;99.90
15455;DHT22;21057;51.024;7.540;2023-02-01T05:21:06;5.30;99.90
15455;DHT22;21057;51.024;7.540;2023-02-01T05:23:33;5.40;99.90
15455;DHT22;21057;51.024;7.540;2023-02-01T05:26:20;5.50;99.90
15455;DHT22;21057;51.024;7.540;2023-02-01T05:28:47;5.40;99.90
15455;DHT22;21057;51.024;7.540;2023-02-01T05:31:15;5.40;99.90
15455;DHT22;21057;51.024;7.540;2023-02-01T05:33:43;5.40;99.90
15455;DHT22;21057;51.024;7.540;2023-02-01T05:36:10;5.50;99.90
15455;DHT22;21057;51.024;7.540;2023-02-01T05:38:37;5.40;99.90
15455;DHT22;21057;51.024;7.540;2023-02-01T05:41:04;5.40;99.90
15455;DHT22;21057;51.024;7.540;2023-02-01T05:43:33;5.30;99.90
15455;DHT22;21057;51.024;7.540;2023-02-01T05:46:00;5.50;99.90
15455;DHT22;21057;51.024;7.540;2023-02-01T05:48:27;5.40;99.90
15455;DHT22;21057;51.024;7.540;2023-02-01T05:50:58;5.50;99.90
15455;DHT22;21057;51.024;7.540;2023-02-01T05:53:26;5.40;99.90
15455;DHT22;21057;51.024;7.540;2023-02-01T05:55:53;5.40;99.90
15455;DHT22;21057;51.024;7.540;2023-02-01T05:58:20;5.60;99.90
15455;DHT22;21057;51.024;7.540;2023-02-01T06:00:47;5.70;99.90
15455;DHT22;21057;51.024;7.540;2023-02-01T06:03:15;5.60;99.90
15455;DHT22;21057;51.024;7.540;2023-02-01T06:05:43;5.60;99.90
15455;DHT22;21057;51.024;7.540;2023-02-01T06:08:12;5.50;99.90
15455;DHT22;21057;51.024;7.540;2023-02-01T06:10:39;5.50;99.90
15455;DHT22;21057;51.024;7.540;2023-02-01T06:13:06;5.50;99.90
15455;DHT22;21057;51.024;7.540;2023-02-01T06:15:34;5.60;99.90
15455;DHT22;21057;51.024;7.540;2023-02-01T06:18:03;5.50;99.90
15455;DHT22;21057;51.024;7.540;2023-02-01T06:20:32;5.40;99.90
15455;DHT22;21057;51.024;7.540;2023-02-01T06:22:59;5.40;99.90
15455;DHT22;21057;51.024;7.540;2023-02-01T06:25:27;5.40;99.90
15455;DHT22;21057;51.024;7.540;2023-02-01T06:27:57;5.50;99.90
15455;DHT22;21057;51.024;7.540;2023-02-01T06:30:26;5.70;99.90
15455;DHT22;21057;51.024;7.540;2023-02-01T06:32:53;5.60;99.90
15455;DHT22;21057;51.024;7.540;2023-02-01T06:35:21;5.40;99.90
15455;DHT22;21057;51.024;7.540;2023-02-01T06:37:48;5.30;99.90
15455;DHT22;21057;51.024;7.540;2023-02-01T06:40:14;5.40;99.90
15455;DHT22;21057;51.024;7.540;2023-02-01T06:42:43;5.50;99.90
15455;DHT22;21057;51.024;7.540;2023-02-01T06:45:10;5.30;99.90
15455;DHT22;21057;51.024;7.540;2023-02-01T06:47:37;5.30;99.90
15455;DHT22;21057;51.024;7.540;2023-02-01T06:50:04;5.30;99.90
15455;DHT22;21057;51.024;7.540;2023-02-01T06:52:36;5.50;99.90
15455;DHT22;21057;51.024;7.540;2023-02-01T06:55:03;5.40;99.90
15455;DHT22;21057;51.024;7.540;2023-02-01T06:57:30;5.30;99.90
15455;DHT22;21057;51.024;7.540;2023-02-01T07:00:00;5.50;99.90
15455;DHT22;21057;51.024;7.540;2023-02-01T07:02:26;5.60;99.90
15455;DHT22;21057;51.024;7.540;2023-02-01T07:04:53;5.50;99.90
15455;DHT22;21057;51.024;7.540;2023-02-01T07:07:20;5.50;99.90
15455;DHT22;21057;51.024;7.540;2023-02-01T07:09:48;5.40;99.90
15455;DHT22;21057;51.024;7.540;2023-02-01T07:12:15;5.40;99.90
15455;DHT22;21057;51.024;7.540;2023-02-01T07:14:42;5.20;99.90
15455;DHT22;21057;51.024;7.540;2023-02-01T07:17:10;5.20;99.90
15455;DHT22;21057;51.024;7.540;2023-02-01T07:19:37;5.30;99.90
15455;DHT22;21057;51.024;7.540;2023-02-01T07:22:03;5.20;99.90
15455;DHT22;21057;51.024;7.540;2023-02-01T07:24:30;5.20;99.90
15455;DHT22;21057;51.024;7.540;2023-02-01T07:26:57;5.40;99.90
15455;DHT22;21057;51.024;7.540;2023-02-01T07:29:24;5.60;99.90
15455;DHT22;21057;51.024;7.540;2023-02-01T07:31:50;5.50;99.90
15455;DHT22;21057;51.024;7.540;2023-02-01T07:34:19;5.40;99.90
15455;DHT22;21057;51.024;7.540;2023-02-01T07:36:45;5.30;99.90
15455;DHT22;21057;51.024;7.540;2023-02-01T07:39:12;5.40;99.90
15455;DHT22;21057;51.024;7.540;2023-02-01T07:41:39;5.30;99.90
15455;DHT22;21057;51.024;7.540;2023-02-01T07:44:06;5.40;99.90
15455;DHT22;21057;51.024;7.540;2023-02-01T07:46:34;5.40;99.90
15455;DHT22;21057;51.024;7.540;2023-02-01T07:49:01;5.40;99.90
15455;DHT22;21057;51.024;7.540;2023-02-01T07:51:29;5.30;99.90
15455;DHT22;21057;51.024;7.540;2023-02-01T07:53:57;5.20;99.90
15455;DHT22;21057;51.024;7.540;2023-02-01T07:56:24;5.20;99.90
15455;DHT22;21057;51.024;7.540;2023-02-01T07:58:52;5.00;99.90
15455;DHT22;21057;51.024;7.540;2023-02-01T08:01:21;5.00;99.90
15455;DHT22;21057;51.024;7.540;2023-02-01T08:03:51;5.10;99.90
15455;DHT22;21057;51.024;7.540;2023-02-01T08:06:19;5.10;99.90
15455;DHT22;21057;51.024;7.540;2023-02-01T08:08:51;5.10;99.90
15455;DHT22;21057;51.024;7.540;2023-02-01T08:11:21;5.10;99.90
15455;DHT22;21057;51.024;7.540;2023-02-01T08:13:48;5.20;99.90
15455;DHT22;21057;51.024;7.540;2023-02-01T08:16:16;5.30;99.90
15455;DHT22;21057;51.024;7.540;2023-02-01T08:18:44;5.20;99.90
15455;DHT22;21057;51.024;7.540;2023-02-01T08:21:13;5.10;99.90
15455;DHT22;21057;51.024;7.540;2023-02-01T08:23:41;5.20;99.90
15455;DHT22;21057;51.024;7.540;2023-02-01T08:26:11;5.40;99.90
15455;DHT22;21057;51.024;7.540;2023-02-01T08:28:42;5.40;99.90
15455;DHT22;21057;51.024;7.540;2023-02-01T08:31:11;5.40;99.90
15455;DHT22;21057;51.024;7.540;2023-02-01T08:33:40;5.20;99.90
15455;DHT22;21057;51.024;7.540;2023-02-01T08:36:09;5.00;99.90
15455;DHT22;21057;51.024;7.540;2023-02-01T08:38:38;5.20;99.90
15455;DHT22;21057;51.024;7.540;2023-02-01T08:41:06;5.20;99.90
15455;DHT22;21057;51.024;7.540;2023-02-01T08:43:35;5.30;99.90
15455;DHT22;21057;51.024;7.540;2023-02-01T08:46:02;5.60;99.90
15455;DHT22;21057;51.024;7.540;2023-02-01T08:48:30;5.60;99.90
15455;DHT22;21057;51.024;7.540;2023-02-01T08:50:57;5.20;99.90
15455;DHT22;21057;51.024;7.540;2023-02-01T08:53:27;5.10;99.90
15455;DHT22;21057;51.024;7.540;2023-02-01T08:55:53;5.20;99.90
15455;DHT22;21057;51.024;7.540;2023-02-01T08:58:20;5.20;99.90
15455;DHT22;21057;51.024;7.540;2023-02-01T09:01:02;5.20;99.90
15455;DHT22;21057;51.024;7.540;2023-02-01T09:03:29;5.10;99.90
15455;DHT22;21057;51.024;7.540;2023-02-01T09:06:00;5.10;99.90
15455;DHT22;21057;51.024;7.540;2023-02-01T09:08:27;5.00;99.90
15455;DHT22;21057;51.024;7.540;2023-02-01T09:10:58;5.30;99.90
15455;DHT22;21057;51.024;7.540;2023-02-01T09:13:25;5.40;99.90
15455;DHT22;21057;51.024;7.540;2023-02-01T09:15:58;5.20;99.90
15455;DHT22;21057;51.024;7.540;2023-02-01T09:18:26;5.30;99.90
15455;DHT22;21057;51.024;7.540;2023-02-01T09:20:53;5.20;99.90
15455;DHT22;21057;51.024;7.540;2023-02-01T09:23:20;5.20;99.90
15455;DHT22;21057;51.024;7.540;2023-02-01T09:25:48;5.20;99.90
15455;DHT22;21057;51.024;7.540;2023-02-01T09:28:15;5.40;99.90
15455;DHT22;21057;51.024;7.540;2023-02-01T09:30:42;5.50;99.90
15455;DHT22;21057;51.024;7.540;2023-02-01T09:33:13;5.50;99.90
15455;DHT22;21057;51.024;7.540;2023-02-01T09:35:40;5.60;99.90
15455;DHT22;21057;51.024;7.540;2023-02-01T09:38:08;5.50;99.90
15455;DHT22;21057;51.024;7.540;2023-02-01T09:40:35;5.30;99.90
15455;DHT22;21057;51.024;7.540;2023-02-01T09:43:16;5.40;99.90
15455;DHT22;21057;51.024;7.540;2023-02-01T09:45:55;5.40;99.90
15455;DHT22;21057;51.024;7.540;2023-02-01T09:48:31;5.20;99.90
15455;DHT22;21057;51.024;7.540;2023-02-01T09:51:04;5.20;99.90
15455;DHT22;21057;51.024;7.540;2023-02-01T09:53:34;5.20;99.90
15455;DHT22;21057;51.024;7.540;2023-02-01T09:56:05;5.10;99.90
15455;DHT22;21057;51.024;7.540;2023-02-01T09:58:35;5.20;99.90
15455;DHT22;21057;51.024;7.540;2023-02-01T10:01:04;5.40;99.90
15455;DHT22;21057;51.024;7.540;2023-02-01T10:03:34;5.60;99.90
15455;DHT22;21057;51.024;7.540;2023-02-01T10:06:25;5.70;99.90
15455;DHT22;21057;51.024;7.540;2023-02-01T10:09:19;5.60;99.90
15455;DHT22;21057;51.024;7.540;2023-02-01T10:11:58;5.40;99.90
15455;DHT22;21057;51.024;7.540;2023-02-01T10:14:51;5.50;99.90
15455;DHT22;21057;51.024;7.540;2023-02-01T10:17:29;5.50;99.90
15455;DHT22;21057;51.024;7.540;2023-02-01T10:20:09;5.50;99.90
15455;DHT22;21057;51.024;7.540;2023-02-01T10:22:41;5.40;99.90
15455;DHT22;21057;51.024;7.540;2023-02-01T10:25:14;5.50;99.90
15455;DHT22;21057;51.024;7.540;2023-02-01T10:27:44;5.80;99.90
15455;DHT22;21057;51.024;7.540;2023-02-01T10:30:18;5.60;99.90
15455;DHT22;21057;51.024;7.540;2023-02-01T10:32:49;5.60;99.90
15455;DHT22;21057;51.024;7.540;2023-02-01T10:35:24;5.60;99.90
15455;DHT22;21057;51.024;7.540;2023-02-01T10:37:52;5.60;99.90
15455;DHT22;21057;51.024;7.540;2023-02-01T10:40:21;5.80;99.90
15455;DHT22;21057;51.024;7.540;2023-02-01T10:42:49;5.60;99.90
15455;DHT22;21057;51.024;7.540;2023-02-01T10:45:19;5.60;99.90
15455;DHT22;21057;51.024;7.540;2023-02-01T10:47:49;5.80;99.90
15455;DHT22;21057;51.024;7.540;2023-02-01T10:50:33;5.70;99.90
15455;DHT22;21057;51.024;7.540;2023-02-01T10:53:04;5.70;99.90
15455;DHT22;21057;51.024;7.540;2023-02-01T10:55:37;5.80;99.90
15455;DHT22;21057;51.024;7.540;2023-02-01T10:58:06;5.80;99.90
15455;DHT22;21057;51.024;7.540;2023-02-01T11:00:43;5.90;99.90
15455;DHT22;21057;51.024;7.540;2023-02-01T11:03:27;5.90;99.90
15455;DHT22;21057;51.024;7.540;2023-02-01T11:05:58;5.70;99.90
15455;DHT22;21057;51.024;7.540;2023-02-01T11:08:25;5.70;99.90
15455;DHT22;21057;51.024;7.540;2023-02-01T11:11:00;5.90;99.90
15455;DHT22;21057;51.024;7.540;2023-02-01T11:13:32;5.90;99.90
15455;DHT22;21057;51.024;7.540;2023-02-01T11:16:05;5.70;99.90
15455;DHT22;21057;51.024;7.540;2023-02-01T11:18:37;5.80;99.90
15455;DHT22;21057;51.024;7.540;2023-02-01T11:21:09;5.70;99.90
15455;DHT22;21057;51.024;7.540;2023-02-01T11:23:41;5.80;99.90
15455;DHT22;21057;51.024;7.540;2023-02-01T11:26:12;5.90;99.90
15455;DHT22;21057;51.024;7.540;2023-02-01T11:28:47;6.10;99.90
15455;DHT22;21057;51.024;7.540;2023-02-01T11:31:17;6.30;99.90
15455;DHT22;21057;51.024;7.540;2023-02-01T11:33:49;6.20;99.90
15455;DHT22;21057;51.024;7.540;2023-02-01T11:36:20;6.10;99.90
15455;DHT22;21057;51.024;7.540;2023-02-01T11:39:07;5.90;99.90
15455;DHT22;21057;51.024;7.540;2023-02-01T11:41:41;6.00;99.90
15455;DHT22;21057;51.024;7.540;2023-02-01T11:44:20;6.10;99.90
15455;DHT22;21057;51.024;7.540;2023-02-01T11:46:49;6.00;99.90
15455;DHT22;21057;51.024;7.540;2023-02-01T11:49:21;6.10;99.90
15455;DHT22;21057;51.024;7.540;2023-02-01T11:52:04;6.20;99.90
15455;DHT22;21057;51.024;7.540;2023-02-01T11:54:53;6.30;99.90
15455;DHT22;21057;51.024;7.540;2023-02-01T11:57:36;6.30;99.90
15455;DHT22;21057;51.024;7.540;2023-02-01T12:00:23;6.20;99.90
15455;DHT22;21057;51.024;7.540;2023-02-01T12:03:10;6.10;99.90
15455;DHT22;21057;51.024;7.540;2023-02-01T12:05:50;6.00;99.90
15455;DHT22;21057;51.024;7.540;2023-02-01T12:11:38;6.10;99.90
15455;DHT22;21057;51.024;7.540;2023-02-01T12:14:23;6.30;99.90
15455;DHT22;21057;51.024;7.540;2023-02-01T12:17:05;6.20;99.90
15455;DHT22;21057;51.024;7.540;2023-02-01T12:19:43;6.30;99.90
15455;DHT22;21057;51.024;7.540;2023-02-01T12:22:27;6.20;99.90
15455;DHT22;21057;51.024;7.540;2023-02-01T12:25:13;6.20;99.90
15455;DHT22;21057;51.024;7.540;2023-02-01T12:28:06;6.30;99.90
15455;DHT22;21057;51.024;7.540;2023-02-01T12:34:04;6.20;99.90
15455;DHT22;21057;51.024;7.540;2023-02-01T12:36:46;6.00;99.90
15455;DHT22;21057;51.024;7.540;2023-02-01T12:39:22;5.90;99.90
15455;DHT22;21057;51.024;7.540;2023-02-01T12:41:57;6.00;99.90
15455;DHT22;21057;51.024;7.540;2023-02-01T12:44:40;6.00;99.90
15455;DHT22;21057;51.024;7.540;2023-02-01T12:47:16;6.00;99.90
15455;DHT22;21057;51.024;7.540;2023-02-01T12:49:50;6.00;99.90
15455;DHT22;21057;51.024;7.540;2023-02-01T12:52:23;6.10;99.90
15455;DHT22;21057;51.024;7.540;2023-02-01T12:54:57;6.00;99.90
15455;DHT22;21057;51.024;7.540;2023-02-01T12:57:30;5.80;99.90
15455;DHT22;21057;51.024;7.540;2023-02-01T13:00:05;5.80;99.90
15455;DHT22;21057;51.024;7.540;2023-02-01T13:02:40;5.80;99.90
15455;DHT22;21057;51.024;7.540;2023-02-01T13:05:18;5.90;99.90
15455;DHT22;21057;51.024;7.540;2023-02-01T13:07:50;6.00;99.90
15455;DHT22;21057;51.024;7.540;2023-02-01T13:10:21;6.00;99.90
15455;DHT22;21057;51.024;7.540;2023-02-01T13:12:54;6.00;99.90
15455;DHT22;21057;51.024;7.540;2023-02-01T13:15:27;5.90;99.90
15455;DHT22;21057;51.024;7.540;2023-02-01T13:17:58;5.90;99.90
15455;DHT22;21057;51.024;7.540;2023-02-01T13:20:31;5.80;99.90
15455;DHT22;21057;51.024;7.540;2023-02-01T13:23:01;5.70;99.90
15455;DHT22;21057;51.024;7.540;2023-02-01T13:25:34;5.80;99.90
15455;DHT22;21057;51.024;7.540;2023-02-01T13:28:05;5.80;99.90
15455;DHT22;21057;51.024;7.540;2023-02-01T13:30:51;5.70;99.90
15455;DHT22;21057;51.024;7.540;2023-02-01T13:36:43;5.80;99.90
15455;DHT22;21057;51.024;7.540;2023-02-01T13:39:35;5.70;99.90
15455;DHT22;21057;51.024;7.540;2023-02-01T13:42:15;5.60;99.90
15455;DHT22;21057;51.024;7.540;2023-02-01T13:44:45;5.50;99.90
15455;DHT22;21057;51.024;7.540;2023-02-01T13:47:27;5.70;99.90
15455;DHT22;21057;51.024;7.540;2023-02-01T13:49:56;5.70;99.90
15455;DHT22;21057;51.024;7.540;2023-02-01T13:52:37;5.60;99.90
15455;DHT22;21057;51.024;7.540;2023-02-01T13:55:33;5.70;99.90
15455;DHT22;21057;51.024;7.540;2023-02-01T13:58:19;5.80;99.90
15455;DHT22;21057;51.024;7.540;2023-02-01T14:00:48;5.70;99.90
15455;DHT22;21057;51.024;7.540;2023-02-01T14:03:22;5.80;99.90
15455;DHT22;21057;51.024;7.540;2023-02-01T14:06:34;5.80;99.90
15455;DHT22;21057;51.024;7.540;2023-02-01T14:09:33;5.80;99.90
15455;DHT22;21057;51.024;7.540;2023-02-01T14:15:21;5.80;99.90
15455;DHT22;21057;51.024;7.540;2023-02-01T14:17:57;5.70;99.90
15455;DHT22;21057;51.024;7.540;2023-02-01T14:20:46;5.80;99.90
15455;DHT22;21057;51.024;7.540;2023-02-01T14:23:27;5.80;99.90
15455;DHT22;21057;51.024;7.540;2023-02-01T14:26:09;5.80;99.90
15455;DHT22;21057;51.024;7.540;2023-02-01T14:28:40;5.80;99.90
15455;DHT22;21057;51.024;7.540;2023-02-01T14:31:46;5.80;99.90
15455;DHT22;21057;51.024;7.540;2023-02-01T14:34:26;6.00;99.90
15455;DHT22;21057;51.024;7.540;2023-02-01T14:37:04;6.10;99.90
15455;DHT22;21057;51.024;7.540;2023-02-01T14:39:40;5.90;99.90
15455;DHT22;21057;51.024;7.540;2023-02-01T14:42:22;5.80;99.90
15455;DHT22;21057;51.024;7.540;2023-02-01T14:44:50;6.10;99.90
15455;DHT22;21057;51.024;7.540;2023-02-01T14:47:34;6.30;99.90
15455;DHT22;21057;51.024;7.540;2023-02-01T14:50:31;6.40;99.90
15455;DHT22;21057;51.024;7.540;2023-02-01T14:53:14;6.10;99.90
15455;DHT22;21057;51.024;7.540;2023-02-01T14:55:49;6.10;99.90
15455;DHT22;21057;51.024;7.540;2023-02-01T14:58:40;6.20;99.90
15455;DHT22;21057;51.024;7.540;2023-02-01T15:01:21;6.10;99.90
15455;DHT22;21057;51.024;7.540;2023-02-01T15:04:05;6.10;99.90
15455;DHT22;21057;51.024;7.540;2023-02-01T15:06:37;6.10;99.90
15455;DHT22;21057;51.024;7.540;2023-02-01T15:09:09;6.20;99.90
15455;DHT22;21057;51.024;7.540;2023-02-01T15:11:57;6.10;99.90
15455;DHT22;21057;51.024;7.540;2023-02-01T15:14:27;6.00;99.90
15455;DHT22;21057;51.024;7.540;2023-02-01T15:16:56;6.00;99.90
15455;DHT22;21057;51.024;7.540;2023-02-01T15:19:25;6.10;99.90
15455;DHT22;21057;51.024;7.540;2023-02-01T15:21:53;6.00;99.90
15455;DHT22;21057;51.024;7.540;2023-02-01T15:24:25;6.00;99.90
15455;DHT22;21057;51.024;7.540;2023-02-01T15:26:54;6.10;99.90
15455;DHT22;21057;51.024;7.540;2023-02-01T15:29:27;6.10;99.90
15455;DHT22;21057;51.024;7.540;2023-02-01T15:31:58;6.30;99.90
15455;DHT22;21057;51.024;7.540;2023-02-01T15:34:44;6.10;99.90
15455;DHT22;21057;51.024;7.540;2023-02-01T15:37:13;6.10;99.90
15455;DHT22;21057;51.024;7.540;2023-02-01T15:40:18;6.20;99.90
15455;DHT22;21057;51.024;7.540;2023-02-01T15:42:51;6.10;99.90
15455;DHT22;21057;51.024;7.540;2023-02-01T15:45:21;6.20;99.90
15455;DHT22;21057;51.024;7.540;2023-02-01T15:47:49;6.30;99.90
15455;DHT22;21057;51.024;7.540;2023-02-01T15:50:20;6.20;99.90
15455;DHT22;21057;51.024;7.540;2023-02-01T15:52:49;6.30;99.90
15455;DHT22;21057;51.024;7.540;2023-02-01T15:55:22;6.40;99.90
15455;DHT22;21057;51.024;7.540;2023-02-01T15:57:50;6.50;99.90
15455;DHT22;21057;51.024;7.540;2023-02-01T16:00:22;6.30;99.90
15455;DHT22;21057;51.024;7.540;2023-02-01T16:02:58;6.20;99.90
15455;DHT22;21057;51.024;7.540;2023-02-01T16:05:33;6.00;99.90
15455;DHT22;21057;51.024;7.540;2023-02-01T16:08:06;6.30;99.90
15455;DHT22;21057;51.024;7.540;2023-02-01T16:10:39;6.30;99.90
15455;DHT22;21057;51.024;7.540;2023-02-01T16:13:08;6.30;99.90
15455;DHT22;21057;51.024;7.540;2023-02-01T16:15:39;6.40;99.90
15455;DHT22;21057;51.024;7.540;2023-02-01T16:18:07;6.50;99.90
15455;DHT22;21057;51.024;7.540;2023-02-01T16:20:35;6.50;99.90
15455;DHT22;21057;51.024;7.540;2023-02-01T16:23:02;6.40;99.90
15455;DHT22;21057;51.024;7.540;2023-02-01T16:25:29;6.40;99.90
15455;DHT22;21057;51.024;7.540;2023-02-01T16:27:57;6.50;99.90
15455;DHT22;21057;51.024;7.540;2023-02-01T16:30:26;6.60;99.90
15455;DHT22;21057;51.024;7.540;2023-02-01T16:32:54;6.50;99.90
15455;DHT22;21057;51.024;7.540;2023-02-01T16:35:24;6.60;99.90
15455;DHT22;21057;51.024;7.540;2023-02-01T16:37:51;6.50;99.90